Meteo Giornale » Osservazioni meteo Italia » Milano-Linate

ore: 11:50 - Osservazioni Meteo Milano-Linate
Lat. 45° 26' N Lon. 9° 17' E Alt. 107 metri s.l.m.

sereno Europe/Rome

27 °C

Sereno

Temp. 24 Ore

19 °C

30 °C

Est/Sud-Est

7.4 Km/h

Dew point 17 °C

Umidità 54 %

Visibilità  10 Km

Il sole sorge alle ore 06:13

Il sole tramonta alle ore 20:43

Data e Ora Cielo e Fenomeni T °C DP °C Um. % Pres. hPa Vis. km Vento km/h
Oggi h: 11:50 sereno Sereno 27 17 54 1017 10 E/SE 7.4
Oggi h: 11:20 sereno Sereno 26 16 54 1017 10 N 5.5
Oggi h: 10:50 sereno Sereno 26 17 57 1017 10 N 5.5
Oggi h: 10:20 poco_nuvoloso Poco Nuvoloso 24 18 69 1017 10 N 5.5
Oggi h: 09:50 nuvoloso Nuvoloso 24 18 69 1017 10 N 5.5
Oggi h: 09:20 nuvoloso Nuvoloso 23 18 73 1017 10 N 5.5
Oggi h: 08:50 poco_nuvoloso Poco Nuvoloso 23 17 68 1017 10 N 5.5
Oggi h: 08:20 poco_nuvoloso Poco Nuvoloso 22 18 78 1017 10 N 3.7
Oggi h: 07:50 poco_nuvoloso Poco Nuvoloso 20 18 88 1017 10 N 1.8
Oggi h: 07:20 poco_nuvoloso Poco Nuvoloso 19 17 88 1016 10 N 3.7
Oggi h: 06:50 poco_nuvoloso Poco Nuvoloso 20 17 82 1016 10 N 1.8
Oggi h: 06:20 poco_nuvoloso Poco Nuvoloso 20 17 82 1016 10 N 5.5
Oggi h: 05:50 poco_nuvoloso Poco Nuvoloso 20 17 82 1016 10 N 3.7
Oggi h: 05:20 sereno Sereno 22 15 64 1016 10 N 5.5
Oggi h: 04:50 sereno Sereno 22 15 64 1016 10 E/NE 9.3
Oggi h: 04:20 poco_nuvoloso Poco Nuvoloso 21 18 82 1016 10 N 1.8
Oggi h: 03:50 nuvoloso Nuvoloso 21 18 82 1016 10 N 3.7
Oggi h: 03:20 nuvoloso Nuvoloso 22 16 68 1016 10 N 3.7
Oggi h: 02:50 sereno Sereno 23 16 64 1016 10 N 5.5
Oggi h: 02:20 sereno Sereno 22 16 68 1016 10 NE 7.4
Oggi h: 01:50 coperto_pioggia Pioggia Debole 23 16 64 1016 10 N/NO 7.4
Oggi h: 01:20 sereno Sereno 23 15 60 1017 10 O/NO 7.4
Oggi h: 00:50 poco_nuvoloso Poco Nuvoloso 24 14 53 1017 10 NO 13
Oggi h: 00:20 poco_nuvoloso Poco Nuvoloso 24 14 53 1017 10 N/NO 13
Ieri h: 23:50 poco_nuvoloso Poco Nuvoloso 24 14 53 1016 10 NO 16.7
Ieri h: 23:20 nuvoloso Nuvoloso 24 16 60 1016 10 N 5.5
Ieri h: 22:50 nuvoloso Nuvoloso 25 14 50 1016 10 N 1.8
Ieri h: 22:20 nuvoloso Nuvoloso 26 13 44 1015 10 N 9.3
Ieri h: 21:50 molto_nuvoloso Molto Nuvoloso 27 17 54 1015 10 N 5.5
Ieri h: 21:20 molto_nuvoloso Molto Nuvoloso 28 16 48 1015 10 N 5.5
Ieri h: 20:50 nuvoloso Nuvoloso 28 16 48 1015 10 N 5.5
Ieri h: 20:20 nuvoloso Nuvoloso 28 16 48 1015 10 E/SE 7.4
Ieri h: 19:50 nuvoloso Nuvoloso 28 16 48 1014 10 SE 11.1
Ieri h: 19:20 nuvoloso Nuvoloso 29 16 45 1014 10 E/SE 13
Ieri h: 18:50 poco_nuvoloso Poco Nuvoloso 29 16 45 1014 10 E/SE 13
Ieri h: 18:20 poco_nuvoloso Poco Nuvoloso 29 16 45 1014 10 SE 11.1
Ieri h: 17:50 poco_nuvoloso Poco Nuvoloso 30 16 42 1014 10 E/SE 14.8
Ieri h: 17:20 poco_nuvoloso Poco Nuvoloso 30 16 42 1014 10 E/SE 16.7
Ieri h: 16:50 sereno Sereno 29 16 45 1014 10 SE 18.5
Ieri h: 16:20 sereno Sereno 30 16 42 1014 10 E/SE 20.3
Ieri h: 15:50 sereno Sereno 29 16 45 1014 10 SE 18.5
Ieri h: 15:20 poco_nuvoloso Poco Nuvoloso 29 18 51 1015 10 S/SE 13
Ieri h: 14:50 poco_nuvoloso Poco Nuvoloso 28 17 51 1015 10 SE 14.8
Ieri h: 14:20 poco_nuvoloso Poco Nuvoloso 29 17 48 1016 10 SE 13
Ieri h: 13:50 poco_nuvoloso Poco Nuvoloso 29 17 48 1016 10 SE 13
Ieri h: 13:20 poco_nuvoloso Poco Nuvoloso 28 18 54 1016 10 E/SE 16.7
Ieri h: 12:50 poco_nuvoloso Poco Nuvoloso 28 18 54 1016 10 S/SE 13